Leonie — PHLE — position and weather

sailwx.info

Track history (hours):
 
Tides and Currents Weather Stations Pressure Air Temp Water Temp Dewpoint Dewpoint Depression Visibility Wind Speed Wind Dir Waves Ship Positions

Leonie

Last reported at 2015-Apr-27 23:33 UTC. Time now 2015-Apr-28 00:34 UTC.
Position N 53°59' E 008°25'.

Length 90 m; draft 5.4 m.

Type: Cargo ship. MMSI: 244772000.

Date/timePositionNaut miles runAvg speedWind from/ knotsBaromVisibWave heightAir tempDewpointWater temp
2015-Apr-27 23:33N 53°59' E 008°25'1211.6
2015-Apr-27 22:33N 53°54' E 008°42'1111.2
2015-Apr-27 21:33N 53°51' E 009°00'6 6.2
2015-Apr-27 20:33N 53°54' E 009°10'9 8.6
2015-Apr-27 19:33N 54°01' E 009°18'8 6.9
2015-Apr-27 18:24N 54°09' E 009°22'6 5.5
2015-Apr-27 17:24N 54°11' E 009°30'8 6.0
2015-Apr-27 16:05N 54°17' E 009°39'4 7.5
2015-Apr-27 15:33N 54°20' E 009°44'8 7.6
2015-Apr-27 14:33N 54°20' E 009°57'4 3.8
2015-Apr-27 13:33N 54°22' E 010°03'3 3.3
2015-Apr-27 12:33N 54°22' E 010°08'5 4.9
2015-Apr-27 11:33N 54°26' E 010°13'10 9.8
2015-Apr-27 10:33N 54°32' E 010°26'1510.3
2015-Apr-27 09:04N 54°36' E 010°52'510.6
2015-Apr-27 08:33N 54°36' E 011°01'1010.2
2015-Apr-27 07:33N 54°35' E 011°19'1110.7
2015-Apr-27 06:33N 54°30' E 011°35'1010.4
2015-Apr-27 05:33N 54°28' E 011°53'10 9.5
2015-Apr-27 04:33N 54°28' E 012°09'1010.0
2015-Apr-27 03:33N 54°37' E 012°14'1010.2
2015-Apr-27 02:33N 54°44' E 012°27'1110.1
2015-Apr-27 01:29N 54°50' E 012°43'1110.0
2015-Apr-27 00:20N 54°53' E 013°02'910.2
2015-Apr-26 23:28N 54°56' E 013°17'1210.6
2015-Apr-26 22:23N 54°60' E 013°36'810.3
2015-Apr-26 21:33N 55°02' E 013°50'10 9.7
2015-Apr-26 20:33N 55°07' E 014°04'9 8.8
2015-Apr-26 19:33N 55°13' E 014°15'1010.2
2015-Apr-26 18:34N 55°22' E 014°26'1010.3
2015-Apr-26 17:33N 55°29' E 014°39'1010.3
2015-Apr-26 16:33N 55°34' E 014°55'1010.3
2015-Apr-26 15:33N 55°39' E 015°11'1010.1
2015-Apr-26 14:32N 55°44' E 015°26'284 9.7
2015-Apr-25 09:13N 59°08' E 021°32'26 9.6
2015-Apr-25 06:28N 59°25' E 022°12'9 9.7
2015-Apr-25 05:33N 59°30' E 022°26'9 9.4
2015-Apr-25 04:33N 59°34' E 022°43'10 9.6
2015-Apr-25 03:33N 59°36' E 023°01'10 9.6
2015-Apr-25 02:33N 59°39' E 023°20'10 9.9
2015-Apr-25 01:33N 59°41' E 023°39'10 9.9
2015-Apr-25 00:33N 59°44' E 023°57'10 9.8
2015-Apr-24 23:33N 59°47' E 024°16'10 9.7
2015-Apr-24 22:33N 59°49' E 024°35'46 9.2
2015-Apr-24 17:33N 60°01' E 026°03'9 9.1
2015-Apr-24 16:33N 60°07' E 026°17'9 8.6
2015-Apr-24 15:33N 60°15' E 026°26'9 9.5
2015-Apr-24 14:33N 60°21' E 026°39'1110.6
2015-Apr-24 13:33N 60°26' E 026°58'3 2.9
2015-Apr-24 12:31N 60°29' E 026°57'0 0.0
2015-Apr-24 11:31N 60°29' E 026°57'0 0.0
2015-Apr-24 10:31N 60°29' E 026°57'0 0.0
2015-Apr-24 09:28N 60°29' E 026°57'0 0.0
2015-Apr-24 08:31N 60°29' E 026°57'0 0.0
2015-Apr-24 07:31N 60°29' E 026°57'0 0.0
2015-Apr-24 06:31N 60°29' E 026°57'0 0.0
2015-Apr-24 05:31N 60°29' E 026°57'0 0.0
2015-Apr-24 04:31N 60°29' E 026°57'0 0.0
2015-Apr-24 03:31N 60°29' E 026°57'0 0.0
2015-Apr-24 02:19N 60°29' E 026°57'0 0.0
2015-Apr-24 01:31N 60°29' E 026°57'0 0.0
2015-Apr-24 00:31N 60°29' E 026°57'0 0.0
2015-Apr-23 23:31N 60°29' E 026°57'0 0.0
2015-Apr-23 22:31N 60°29' E 026°57'0 0.0
2015-Apr-23 21:31N 60°29' E 026°57'0 0.0
2015-Apr-23 20:31N 60°29' E 026°57'0 0.0
2015-Apr-23 19:31N 60°29' E 026°57'0 0.0
2015-Apr-23 18:31N 60°29' E 026°57'0 0.0
2015-Apr-23 17:33N 60°29' E 026°57'7 6.9
2015-Apr-23 16:33N 60°23' E 026°50'1211.6
2015-Apr-23 15:33N 60°17' E 026°31'1110.8
2015-Apr-23 14:33N 60°08' E 026°19'4610.9
2015-Apr-23 10:18N 59°46' E 024°57'911.7
2015-Apr-23 09:33N 59°44' E 024°40'1211.5
2015-Apr-23 08:33N 59°41' E 024°18'1211.5
2015-Apr-23 07:32N 59°38' E 023°56'1211.6
2015-Apr-23 06:32N 59°34' E 023°35'5811.0
2015-Apr-23 01:14N 59°28' E 021°40'811.5
2015-Apr-23 00:34N 59°31' E 021°26'  
2015-Apr-18 16:08N 57°11' E 017°38'15510.6
2015-Apr-18 01:26N 55°16' E 014°30'1011.2
2015-Apr-18 00:33N 55°09' E 014°18'1111.0
2015-Apr-17 23:33N 55°01' E 014°04'  
Track history (hours):
 
Tides and Currents Weather Stations Pressure Air Temp Water Temp Dewpoint Dewpoint Depression Visibility Wind Speed Wind Dir Waves Ship Positions

Leonie

Last reported at 2015-Apr-27 23:33 UTC. Time now 2015-Apr-28 00:34 UTC.
Position N 53°59' E 008°25'.

Length 90 m; draft 5.4 m.

Type: Cargo ship. MMSI: 244772000.

Date/timePositionNaut miles runAvg speedWind from/ knotsBaromVisibWave heightAir tempDewpointWater temp
2015-Apr-27 23:33N 53°59' E 008°25'1211.6
2015-Apr-27 22:33N 53°54' E 008°42'1111.2
2015-Apr-27 21:33N 53°51' E 009°00'6 6.2
2015-Apr-27 20:33N 53°54' E 009°10'9 8.6
2015-Apr-27 19:33N 54°01' E 009°18'8 6.9
2015-Apr-27 18:24N 54°09' E 009°22'6 5.5
2015-Apr-27 17:24N 54°11' E 009°30'8 6.0
2015-Apr-27 16:05N 54°17' E 009°39'4 7.5
2015-Apr-27 15:33N 54°20' E 009°44'8 7.6
2015-Apr-27 14:33N 54°20' E 009°57'4 3.8
2015-Apr-27 13:33N 54°22' E 010°03'3 3.3
2015-Apr-27 12:33N 54°22' E 010°08'5 4.9
2015-Apr-27 11:33N 54°26' E 010°13'10 9.8
2015-Apr-27 10:33N 54°32' E 010°26'1510.3
2015-Apr-27 09:04N 54°36' E 010°52'510.6
2015-Apr-27 08:33N 54°36' E 011°01'1010.2
2015-Apr-27 07:33N 54°35' E 011°19'1110.7
2015-Apr-27 06:33N 54°30' E 011°35'1010.4
2015-Apr-27 05:33N 54°28' E 011°53'10 9.5
2015-Apr-27 04:33N 54°28' E 012°09'1010.0
2015-Apr-27 03:33N 54°37' E 012°14'1010.2
2015-Apr-27 02:33N 54°44' E 012°27'1110.1
2015-Apr-27 01:29N 54°50' E 012°43'1110.0
2015-Apr-27 00:20N 54°53' E 013°02'910.2
2015-Apr-26 23:28N 54°56' E 013°17'1210.6
2015-Apr-26 22:23N 54°60' E 013°36'810.3
2015-Apr-26 21:33N 55°02' E 013°50'10 9.7
2015-Apr-26 20:33N 55°07' E 014°04'9 8.8
2015-Apr-26 19:33N 55°13' E 014°15'1010.2
2015-Apr-26 18:34N 55°22' E 014°26'1010.3
2015-Apr-26 17:33N 55°29' E 014°39'1010.3
2015-Apr-26 16:33N 55°34' E 014°55'1010.3
2015-Apr-26 15:33N 55°39' E 015°11'1010.1
2015-Apr-26 14:32N 55°44' E 015°26'284 9.7
2015-Apr-25 09:13N 59°08' E 021°32'26 9.6
2015-Apr-25 06:28N 59°25' E 022°12'9 9.7
2015-Apr-25 05:33N 59°30' E 022°26'9 9.4
2015-Apr-25 04:33N 59°34' E 022°43'10 9.6
2015-Apr-25 03:33N 59°36' E 023°01'10 9.6
2015-Apr-25 02:33N 59°39' E 023°20'10 9.9
2015-Apr-25 01:33N 59°41' E 023°39'10 9.9
2015-Apr-25 00:33N 59°44' E 023°57'10 9.8
2015-Apr-24 23:33N 59°47' E 024°16'10 9.7
2015-Apr-24 22:33N 59°49' E 024°35'46 9.2
2015-Apr-24 17:33N 60°01' E 026°03'9 9.1
2015-Apr-24 16:33N 60°07' E 026°17'9 8.6
2015-Apr-24 15:33N 60°15' E 026°26'9 9.5
2015-Apr-24 14:33N 60°21' E 026°39'1110.6
2015-Apr-24 13:33N 60°26' E 026°58'3 2.9
2015-Apr-24 12:31N 60°29' E 026°57'0 0.0
2015-Apr-24 11:31N 60°29' E 026°57'0 0.0
2015-Apr-24 10:31N 60°29' E 026°57'0 0.0
2015-Apr-24 09:28N 60°29' E 026°57'0 0.0
2015-Apr-24 08:31N 60°29' E 026°57'0 0.0
2015-Apr-24 07:31N 60°29' E 026°57'0 0.0
2015-Apr-24 06:31N 60°29' E 026°57'0 0.0
2015-Apr-24 05:31N 60°29' E 026°57'0 0.0
2015-Apr-24 04:31N 60°29' E 026°57'0 0.0
2015-Apr-24 03:31N 60°29' E 026°57'0 0.0
2015-Apr-24 02:19N 60°29' E 026°57'0 0.0
2015-Apr-24 01:31N 60°29' E 026°57'0 0.0
2015-Apr-24 00:31N 60°29' E 026°57'0 0.0
2015-Apr-23 23:31N 60°29' E 026°57'0 0.0
2015-Apr-23 22:31N 60°29' E 026°57'0 0.0
2015-Apr-23 21:31N 60°29' E 026°57'0 0.0
2015-Apr-23 20:31N 60°29' E 026°57'0 0.0
2015-Apr-23 19:31N 60°29' E 026°57'0 0.0
2015-Apr-23 18:31N 60°29' E 026°57'0 0.0
2015-Apr-23 17:33N 60°29' E 026°57'7 6.9
2015-Apr-23 16:33N 60°23' E 026°50'1211.6
2015-Apr-23 15:33N 60°17' E 026°31'1110.8
2015-Apr-23 14:33N 60°08' E 026°19'4610.9
2015-Apr-23 10:18N 59°46' E 024°57'911.7
2015-Apr-23 09:33N 59°44' E 024°40'1211.5
2015-Apr-23 08:33N 59°41' E 024°18'1211.5
2015-Apr-23 07:32N 59°38' E 023°56'1211.6
2015-Apr-23 06:32N 59°34' E 023°35'5811.0
2015-Apr-23 01:14N 59°28' E 021°40'811.5
2015-Apr-23 00:34N 59°31' E 021°26'  
2015-Apr-18 16:08N 57°11' E 017°38'15510.6
2015-Apr-18 01:26N 55°16' E 014°30'1011.2
2015-Apr-18 00:33N 55°09' E 014°18'1111.0
2015-Apr-17 23:33N 55°01' E 014°04'  

Dump ship's entire track history